createdAt,value
2022-10-10T00:01:22.271Z,0.10
2022-10-10T00:03:48.862Z,0.10
2022-10-10T00:06:16.858Z,0.10
2022-10-10T00:08:44.429Z,0.10
2022-10-10T00:11:12.539Z,0.10
2022-10-10T00:13:39.748Z,0.10
2022-10-10T00:16:06.438Z,0.10
2022-10-10T00:18:33.210Z,0.10
2022-10-10T00:20:59.998Z,0.10
2022-10-10T00:23:26.643Z,0.10
2022-10-10T00:25:53.647Z,0.10
2022-10-10T00:28:20.666Z,0.10
2022-10-10T00:30:47.545Z,0.10
2022-10-10T00:33:14.387Z,0.10
2022-10-10T00:35:41.323Z,0.10
2022-10-10T00:38:07.933Z,0.10
2022-10-10T00:40:44.009Z,0.10
2022-10-10T00:43:12.079Z,0.10
2022-10-10T00:45:40.567Z,0.10
2022-10-10T00:48:14.220Z,0.10
2022-10-10T00:50:48.629Z,0.13
2022-10-10T00:53:18.937Z,0.10
2022-10-10T00:55:46.292Z,0.10
2022-10-10T00:58:14.225Z,0.10
2022-10-10T01:00:40.862Z,0.10
2022-10-10T01:03:07.506Z,0.10
2022-10-10T01:05:34.540Z,0.10
2022-10-10T01:08:03.228Z,0.10
2022-10-10T01:10:30.135Z,0.10
2022-10-10T01:13:32.168Z,0.10
2022-10-10T01:16:10.836Z,0.10
2022-10-10T01:19:05.138Z,0.10
2022-10-10T01:22:01.533Z,0.10
2022-10-10T01:24:56.596Z,0.10
2022-10-10T01:27:38.478Z,0.20
2022-10-10T01:30:09.752Z,0.10
2022-10-10T01:32:48.349Z,0.10
2022-10-10T01:35:28.947Z,0.10
2022-10-10T01:38:19.503Z,0.10
2022-10-10T01:40:48.970Z,0.10
2022-10-10T01:43:17.338Z,0.10
2022-10-10T01:45:49.009Z,0.10
2022-10-10T01:48:19.237Z,0.10
2022-10-10T01:50:55.579Z,0.10
2022-10-10T01:53:34.773Z,0.10
2022-10-10T01:56:30.493Z,0.10
2022-10-10T01:59:19.045Z,0.10
2022-10-10T02:01:56.906Z,0.10
2022-10-10T02:04:41.715Z,0.10
2022-10-10T02:07:18.941Z,0.13
2022-10-10T02:09:49.452Z,0.20
2022-10-10T02:12:16.222Z,0.10
2022-10-10T02:14:46.097Z,0.10
2022-10-10T02:17:15.639Z,0.10
2022-10-10T02:19:46.718Z,0.10
2022-10-10T02:22:13.984Z,0.10
2022-10-10T02:24:41.052Z,0.10
2022-10-10T02:27:33.788Z,0.20
2022-10-10T02:30:02.597Z,0.10
2022-10-10T02:32:34.600Z,0.10
2022-10-10T02:35:08.322Z,0.10
2022-10-10T02:37:37.156Z,0.10
2022-10-10T02:40:06.657Z,0.10
2022-10-10T02:42:34.425Z,0.10
2022-10-10T02:45:01.890Z,0.10
2022-10-10T02:47:28.462Z,0.10
2022-10-10T02:49:55.049Z,0.10
2022-10-10T02:52:21.662Z,0.10
2022-10-10T02:54:48.273Z,0.10
2022-10-10T02:57:14.981Z,0.10
2022-10-10T02:59:41.592Z,0.10
2022-10-10T03:02:08.455Z,0.10
2022-10-10T03:04:36.442Z,0.10
2022-10-10T03:07:04.417Z,0.20
2022-10-10T03:09:31.227Z,0.10
2022-10-10T03:11:57.767Z,0.10
2022-10-10T03:14:24.340Z,0.10
2022-10-10T03:16:50.882Z,0.10
2022-10-10T03:19:17.447Z,0.10
2022-10-10T03:21:44.278Z,0.10
2022-10-10T03:24:10.809Z,0.10
2022-10-10T03:26:37.401Z,0.10
2022-10-10T03:29:04.682Z,0.10
2022-10-10T03:31:31.650Z,0.10
2022-10-10T03:33:58.653Z,0.10
2022-10-10T03:36:25.375Z,0.10
2022-10-10T03:38:51.948Z,0.10
2022-10-10T03:41:18.512Z,0.10
2022-10-10T03:43:45.206Z,0.10
2022-10-10T03:46:15.996Z,0.10
2022-10-10T03:48:44.018Z,0.10
2022-10-10T03:51:10.705Z,0.10
2022-10-10T03:53:37.364Z,0.10
2022-10-10T03:56:04.840Z,0.10
2022-10-10T03:58:31.456Z,0.10
2022-10-10T04:01:02.467Z,0.10
2022-10-10T04:03:29.862Z,0.10
2022-10-10T04:05:57.150Z,0.10
2022-10-10T04:08:24.168Z,0.10
2022-10-10T04:10:52.941Z,0.10
2022-10-10T04:13:21.094Z,0.10
2022-10-10T04:15:51.718Z,0.10
2022-10-10T04:18:18.986Z,0.10
2022-10-10T04:20:45.598Z,0.20
2022-10-10T04:23:12.270Z,0.10
2022-10-10T04:25:38.812Z,0.10
2022-10-10T04:28:05.482Z,0.10
2022-10-10T04:30:34.320Z,0.10
2022-10-10T04:33:00.917Z,0.10
2022-10-10T04:35:27.480Z,0.15
2022-10-10T04:37:54.083Z,0.10
2022-10-10T04:40:25.471Z,0.10
2022-10-10T04:42:53.623Z,0.17
2022-10-10T04:45:20.746Z,0.10
2022-10-10T04:47:47.321Z,0.10
2022-10-10T04:50:13.974Z,0.10
2022-10-10T04:52:40.642Z,0.10
2022-10-10T04:55:07.509Z,0.10
2022-10-10T04:57:34.094Z,0.20
2022-10-10T05:00:00.670Z,0.10
2022-10-10T05:02:27.269Z,0.20
2022-10-10T05:04:53.990Z,0.10
2022-10-10T05:07:24.155Z,0.10
2022-10-10T05:09:50.777Z,0.10
2022-10-10T05:12:17.374Z,0.10
2022-10-10T05:14:47.936Z,0.20
2022-10-10T05:17:15.371Z,0.10
2022-10-10T05:19:41.930Z,0.10
2022-10-10T05:22:08.489Z,0.10
2022-10-10T05:24:35.057Z,0.10
2022-10-10T05:27:04.779Z,0.20
2022-10-10T05:29:31.462Z,0.10
2022-10-10T05:31:58.134Z,0.10
2022-10-10T05:34:24.679Z,0.20
2022-10-10T05:36:51.249Z,0.10
2022-10-10T05:39:17.880Z,0.10
2022-10-10T05:41:44.409Z,0.10
2022-10-10T05:44:11.312Z,0.10
2022-10-10T05:46:37.913Z,0.15
2022-10-10T05:49:04.533Z,0.10
2022-10-10T05:51:31.179Z,0.10
2022-10-10T05:53:57.829Z,0.10
2022-10-10T05:56:24.402Z,0.20
2022-10-10T05:58:51.680Z,0.13
2022-10-10T06:01:18.280Z,0.10
2022-10-10T06:03:44.878Z,0.20
2022-10-10T06:06:11.499Z,0.10
2022-10-10T06:08:38.072Z,0.10
2022-10-10T06:11:11.271Z,0.20
2022-10-10T06:13:38.811Z,0.10
2022-10-10T06:16:05.480Z,0.10
2022-10-10T06:18:32.084Z,0.10
2022-10-10T06:21:07.156Z,0.10
2022-10-10T06:23:34.741Z,0.10
2022-10-10T06:26:01.338Z,0.20
2022-10-10T06:28:28.058Z,0.10
2022-10-10T06:30:54.789Z,0.10
2022-10-10T06:33:21.512Z,0.10
2022-10-10T06:35:49.098Z,0.10
2022-10-10T06:38:16.790Z,0.10
2022-10-10T06:40:44.252Z,0.10
2022-10-10T06:43:12.764Z,0.10
2022-10-10T06:45:41.497Z,0.10
2022-10-10T06:48:09.032Z,0.10
2022-10-10T06:50:35.895Z,0.10
2022-10-10T06:53:02.563Z,0.10
2022-10-10T06:55:29.355Z,0.10
2022-10-10T06:57:56.443Z,0.10
2022-10-10T07:00:23.114Z,0.10
2022-10-10T07:02:49.856Z,0.10
2022-10-10T07:05:18.146Z,0.10
2022-10-10T07:07:45.665Z,0.10
2022-10-10T07:10:14.877Z,0.10
2022-10-10T07:12:44.675Z,0.10
2022-10-10T07:15:12.522Z,0.10
2022-10-10T07:17:39.310Z,0.10
2022-10-10T07:20:06.703Z,0.10
2022-10-10T07:22:33.682Z,0.10
2022-10-10T07:25:00.312Z,0.10
2022-10-10T07:27:27.126Z,0.10
2022-10-10T07:29:53.734Z,0.10
2022-10-10T07:32:20.475Z,0.10
2022-10-10T07:34:47.024Z,0.10
2022-10-10T07:37:13.593Z,0.10
2022-10-10T07:39:40.206Z,0.10
2022-10-10T07:42:06.768Z,0.10
2022-10-10T07:44:34.720Z,0.10
2022-10-10T07:47:01.733Z,0.10
2022-10-10T07:49:28.491Z,0.10
2022-10-10T07:51:58.805Z,0.10
2022-10-10T07:54:28.771Z,0.10
2022-10-10T07:56:55.532Z,0.10
2022-10-10T07:59:22.699Z,0.10
2022-10-10T08:01:49.466Z,0.10
2022-10-10T08:04:16.262Z,0.00
2022-10-10T08:06:42.825Z,0.10
2022-10-10T08:09:09.723Z,0.00
2022-10-10T08:11:37.169Z,0.10
2022-10-10T08:14:03.932Z,0.10
2022-10-10T08:16:30.529Z,0.00
2022-10-10T08:18:57.193Z,0.00
2022-10-10T08:21:23.745Z,0.10
2022-10-10T08:23:50.372Z,0.00
2022-10-10T08:26:18.480Z,0.05
2022-10-10T08:28:45.535Z,0.10
2022-10-10T08:31:14.735Z,0.08
2022-10-10T08:33:44.367Z,0.00
2022-10-10T08:36:17.886Z,0.00
2022-10-10T08:38:44.942Z,0.00
2022-10-10T08:41:23.722Z,0.00
2022-10-10T08:43:58.390Z,0.00
2022-10-10T08:46:41.232Z,0.00
2022-10-10T08:49:25.334Z,0.00
2022-10-10T08:52:00.065Z,0.00
2022-10-10T08:54:28.687Z,0.00
2022-10-10T08:56:59.724Z,0.00
2022-10-10T08:59:38.459Z,0.00
2022-10-10T09:02:53.134Z,0.00
2022-10-10T09:05:26.101Z,0.00
2022-10-10T09:08:26.629Z,0.00
2022-10-10T09:10:54.717Z,0.00
2022-10-10T09:13:33.604Z,0.00
2022-10-10T09:16:36.404Z,0.00
2022-10-10T09:19:36.329Z,0.00
2022-10-10T09:22:10.128Z,0.00
2022-10-10T09:25:04.766Z,0.00
2022-10-10T09:27:36.016Z,0.00
2022-10-10T09:30:10.701Z,0.00
2022-10-10T09:32:44.996Z,0.00
2022-10-10T09:35:22.899Z,0.00
2022-10-10T09:37:55.145Z,0.00
2022-10-10T09:40:22.435Z,0.00
2022-10-10T09:42:48.992Z,0.00
2022-10-10T09:45:22.792Z,0.00
2022-10-10T09:47:54.166Z,0.00
2022-10-10T09:50:21.539Z,0.00
2022-10-10T09:52:48.900Z,0.00
2022-10-10T09:55:24.647Z,0.00
2022-10-10T09:57:53.985Z,0.00
2022-10-10T10:00:20.526Z,0.00
2022-10-10T10:03:04.869Z,0.00
2022-10-10T10:05:31.936Z,0.00
2022-10-10T10:07:58.610Z,0.00
2022-10-10T10:10:27.258Z,0.00
2022-10-10T10:12:55.094Z,0.00
2022-10-10T10:15:26.950Z,0.00
2022-10-10T10:18:20.759Z,0.00
2022-10-10T10:21:07.621Z,0.00
2022-10-10T10:23:40.445Z,0.00
2022-10-10T10:26:20.400Z,0.00
2022-10-10T10:28:48.939Z,0.00
2022-10-10T10:31:30.486Z,0.00
2022-10-10T10:34:03.389Z,0.00
2022-10-10T10:36:38.780Z,0.00
2022-10-10T10:39:25.330Z,0.00
2022-10-10T10:42:11.790Z,0.00
2022-10-10T10:44:53.323Z,0.00
2022-10-10T10:47:43.226Z,0.00
2022-10-10T10:50:25.011Z,0.00
2022-10-10T10:53:01.234Z,0.00
2022-10-10T10:55:30.697Z,0.00
2022-10-10T10:58:57.888Z,0.00
2022-10-10T11:01:44.995Z,0.00
2022-10-10T11:05:22.935Z,0.00
2022-10-10T11:07:27.706Z,0.00
2022-10-10T11:10:17.249Z,0.00
2022-10-10T11:13:07.145Z,0.00
2022-10-10T11:21:08.270Z,0.00
2022-10-10T11:23:42.126Z,0.00
2022-10-10T11:28:53.840Z,0.00
2022-10-10T11:31:25.711Z,0.00
2022-10-10T11:34:04.602Z,0.00
2022-10-10T11:36:37.275Z,0.00
2022-10-10T11:39:03.888Z,0.00
2022-10-10T11:41:44.896Z,0.00
2022-10-10T11:44:22.213Z,0.00
2022-10-10T11:47:16.270Z,0.00
2022-10-10T11:49:53.980Z,0.00
2022-10-10T11:52:34.162Z,0.00
2022-10-10T11:55:18.949Z,0.00
2022-10-10T11:57:53.373Z,0.00
2022-10-10T12:00:20.445Z,0.00
2022-10-10T12:02:48.024Z,0.00
2022-10-10T12:05:29.035Z,0.00
2022-10-10T12:07:58.599Z,0.00
2022-10-10T12:10:31.234Z,0.00
2022-10-10T12:13:05.998Z,0.00
2022-10-10T12:15:41.301Z,0.00
2022-10-10T12:18:24.804Z,0.00
2022-10-10T12:21:04.080Z,0.00
2022-10-10T12:23:31.958Z,0.00
2022-10-10T12:25:59.387Z,0.00
2022-10-10T12:28:35.032Z,0.00
2022-10-10T12:31:07.599Z,0.00
2022-10-10T12:33:34.156Z,0.00
2022-10-10T12:36:20.741Z,0.00
2022-10-10T12:39:06.572Z,0.00
2022-10-10T12:41:47.021Z,0.00
2022-10-10T12:44:43.263Z,0.00
2022-10-10T12:47:15.681Z,0.00
2022-10-10T12:49:59.878Z,0.00
2022-10-10T12:55:25.524Z,0.00
2022-10-10T12:57:55.104Z,0.00
2022-10-10T13:00:27.160Z,0.00
2022-10-10T13:02:59.378Z,0.00
2022-10-10T13:05:32.050Z,0.00
2022-10-10T13:08:03.103Z,0.00
2022-10-10T13:10:31.084Z,0.00
2022-10-10T13:13:06.489Z,0.00
2022-10-10T13:15:34.733Z,0.00
2022-10-10T13:18:01.334Z,0.00
2022-10-10T13:20:40.091Z,0.00
2022-10-10T13:23:14.259Z,0.00
2022-10-10T13:25:41.163Z,0.00
2022-10-10T13:28:18.135Z,0.00
2022-10-10T13:30:45.609Z,0.00
2022-10-10T13:33:18.578Z,0.00
2022-10-10T13:35:46.891Z,0.00
2022-10-10T13:38:15.336Z,0.00
2022-10-10T13:40:42.937Z,0.00
2022-10-10T13:43:15.959Z,0.00
2022-10-10T13:45:48.666Z,0.00
2022-10-10T13:48:21.764Z,0.00
2022-10-10T13:50:52.649Z,0.00
2022-10-10T13:53:30.180Z,0.00
2022-10-10T13:56:02.766Z,0.00
2022-10-10T13:58:52.032Z,0.00
2022-10-10T14:01:23.373Z,0.00
2022-10-10T14:03:51.741Z,0.00
2022-10-10T14:06:25.444Z,0.00
2022-10-10T14:08:54.048Z,0.00
2022-10-10T14:11:23.895Z,0.00
2022-10-10T14:13:56.594Z,0.00
2022-10-10T14:16:25.308Z,0.00
2022-10-10T14:18:52.842Z,0.00
2022-10-10T14:21:20.533Z,0.00
2022-10-10T14:23:47.123Z,0.00
2022-10-10T14:26:17.454Z,0.00
2022-10-10T14:28:44.803Z,0.00
2022-10-10T14:31:11.966Z,0.00
2022-10-10T14:33:38.732Z,0.00
2022-10-10T14:36:05.910Z,0.00
2022-10-10T14:38:32.929Z,0.00
2022-10-10T14:41:00.073Z,0.00
2022-10-10T14:43:28.023Z,0.00
2022-10-10T14:45:54.974Z,0.00
2022-10-10T14:48:21.930Z,0.00
2022-10-10T14:50:49.539Z,0.00
2022-10-10T14:53:16.763Z,0.00
2022-10-10T14:55:43.823Z,0.00
2022-10-10T14:58:18.813Z,0.00
2022-10-10T15:00:45.693Z,0.00
2022-10-10T15:03:12.734Z,0.00
2022-10-10T15:05:39.778Z,0.00
2022-10-10T15:08:06.965Z,0.00
2022-10-10T15:10:34.866Z,0.00
2022-10-10T15:13:02.406Z,0.00
2022-10-10T15:15:29.380Z,0.00
2022-10-10T15:18:00.195Z,0.00
2022-10-10T15:20:36.769Z,0.00
2022-10-10T15:23:06.803Z,0.00
2022-10-10T15:25:34.448Z,0.00
2022-10-10T15:28:04.838Z,0.00
2022-10-10T15:30:31.446Z,0.00
2022-10-10T15:32:58.116Z,0.00
2022-10-10T15:35:25.603Z,0.00
2022-10-10T15:37:52.620Z,0.00
2022-10-10T15:40:21.971Z,0.00
2022-10-10T15:42:50.168Z,0.00
2022-10-10T15:45:36.925Z,0.00
2022-10-10T15:48:04.380Z,0.00
2022-10-10T15:50:31.432Z,0.00
2022-10-10T15:52:58.033Z,0.00
2022-10-10T15:55:24.581Z,0.00
2022-10-10T15:57:51.114Z,0.00
2022-10-10T16:00:17.823Z,0.00
2022-10-10T16:02:44.378Z,0.00
2022-10-10T16:05:11.127Z,0.00
2022-10-10T16:07:45.355Z,0.00
2022-10-10T16:10:14.427Z,0.00
2022-10-10T16:12:41.028Z,0.00
2022-10-10T16:15:08.098Z,0.00
2022-10-10T16:17:35.020Z,0.00
2022-10-10T16:20:01.811Z,0.00
2022-10-10T16:22:28.370Z,0.00
2022-10-10T16:27:42.802Z,0.00
2022-10-10T16:30:10.002Z,0.00
2022-10-10T16:32:41.065Z,0.00
2022-10-10T16:35:09.351Z,0.00
2022-10-10T16:37:35.989Z,0.00
2022-10-10T16:40:02.733Z,0.00
2022-10-10T16:42:29.252Z,0.00
2022-10-10T16:44:55.954Z,0.00
2022-10-10T16:47:22.571Z,0.00
2022-10-10T16:49:49.116Z,0.00
2022-10-10T16:52:15.654Z,0.00
2022-10-10T16:54:42.185Z,0.00
2022-10-10T16:57:09.082Z,0.00
2022-10-10T16:59:35.632Z,0.00
2022-10-10T17:02:02.156Z,0.00
2022-10-10T17:04:28.732Z,0.00
2022-10-10T17:06:55.260Z,0.00
2022-10-10T17:09:22.931Z,0.00
2022-10-10T17:11:51.468Z,0.00
2022-10-10T17:14:18.442Z,0.00
2022-10-10T17:17:10.511Z,0.00
2022-10-10T17:19:32.645Z,0.00
2022-10-10T17:21:59.639Z,0.00
2022-10-10T17:24:26.305Z,0.00
2022-10-10T17:26:52.846Z,0.00
2022-10-10T17:29:19.608Z,0.00
2022-10-10T17:31:46.173Z,0.00
2022-10-10T17:34:12.815Z,0.00
2022-10-10T17:36:39.430Z,0.00
2022-10-10T17:39:07.584Z,0.00
2022-10-10T17:41:34.445Z,0.00
2022-10-10T17:44:01.280Z,0.00
2022-10-10T17:46:34.687Z,0.00
2022-10-10T17:49:04.457Z,0.00
2022-10-10T17:51:31.126Z,0.00
2022-10-10T17:54:01.261Z,0.00
2022-10-10T17:56:28.871Z,0.00
2022-10-10T17:58:55.769Z,0.00
2022-10-10T18:01:22.647Z,0.00
2022-10-10T18:03:49.794Z,0.00
2022-10-10T18:06:18.766Z,0.00
2022-10-10T18:08:49.765Z,0.00
2022-10-10T18:11:20.859Z,0.00
2022-10-10T18:13:47.639Z,0.00
2022-10-10T18:16:17.149Z,0.00
2022-10-10T18:18:50.362Z,0.00
2022-10-10T18:21:19.176Z,0.00
2022-10-10T18:23:45.806Z,0.00
2022-10-10T18:26:15.362Z,0.00
2022-10-10T18:28:42.971Z,0.00
2022-10-10T18:31:14.266Z,0.00
2022-10-10T18:33:41.741Z,0.00
2022-10-10T18:36:09.810Z,0.00
2022-10-10T18:38:37.703Z,0.00
2022-10-10T18:41:11.609Z,0.00
2022-10-10T18:46:08.225Z,0.00
2022-10-10T18:48:38.691Z,0.00
2022-10-10T18:51:11.902Z,0.00
2022-10-10T18:53:41.069Z,0.00
2022-10-10T18:56:08.528Z,0.00
2022-10-10T18:58:36.419Z,0.00
2022-10-10T19:01:09.067Z,0.00
2022-10-10T19:03:37.222Z,0.00
2022-10-10T19:06:05.464Z,0.00
2022-10-10T19:08:32.198Z,0.00
2022-10-10T19:10:59.109Z,0.00
2022-10-10T19:13:26.178Z,0.00
2022-10-10T19:15:53.347Z,0.00
2022-10-10T19:18:21.203Z,0.00
2022-10-10T19:20:47.766Z,0.00
2022-10-10T19:23:15.026Z,0.00
2022-10-10T19:25:42.610Z,0.00
2022-10-10T19:28:09.855Z,0.00
2022-10-10T19:30:40.867Z,0.00
2022-10-10T19:33:07.401Z,0.00
2022-10-10T19:35:38.811Z,0.00
2022-10-10T19:38:08.991Z,0.00
2022-10-10T19:40:36.249Z,0.00
2022-10-10T19:43:02.862Z,0.00
2022-10-10T19:45:29.477Z,0.00
2022-10-10T19:47:56.028Z,0.00
2022-10-10T19:50:22.646Z,0.00
2022-10-10T19:52:49.227Z,0.00
2022-10-10T19:55:18.439Z,0.00
2022-10-10T19:57:45.019Z,0.00
2022-10-10T20:00:12.203Z,0.00
2022-10-10T20:02:38.767Z,0.00
2022-10-10T20:05:05.638Z,0.00
2022-10-10T20:07:32.394Z,0.00
2022-10-10T20:09:58.928Z,0.00
2022-10-10T20:12:25.472Z,0.00
2022-10-10T20:14:52.605Z,0.00
2022-10-10T20:17:19.305Z,0.00
2022-10-10T20:19:46.003Z,0.00
2022-10-10T20:22:12.569Z,0.00
2022-10-10T20:24:39.219Z,0.00
2022-10-10T20:27:05.751Z,0.00
2022-10-10T20:29:32.338Z,0.00
2022-10-10T20:31:58.854Z,0.00
2022-10-10T20:34:25.482Z,0.00
2022-10-10T20:36:52.409Z,0.10
2022-10-10T20:39:19.388Z,0.00
2022-10-10T20:41:45.963Z,0.00
2022-10-10T20:44:14.483Z,0.00
2022-10-10T20:46:43.389Z,0.00
2022-10-10T20:49:21.977Z,0.00
2022-10-10T20:51:51.021Z,0.00
2022-10-10T20:54:20.911Z,0.00
2022-10-10T20:56:49.659Z,0.00
2022-10-10T20:59:20.957Z,0.00
2022-10-10T21:01:47.668Z,0.00
2022-10-10T21:04:14.437Z,0.00
2022-10-10T21:06:44.388Z,0.00
2022-10-10T21:09:14.595Z,0.00
2022-10-10T21:11:41.360Z,0.00
2022-10-10T21:14:08.145Z,0.00
2022-10-10T21:16:37.750Z,0.00
2022-10-10T21:19:05.935Z,0.00
2022-10-10T21:21:34.900Z,0.00
2022-10-10T21:24:02.807Z,0.00
2022-10-10T21:26:30.459Z,0.00
2022-10-10T21:28:57.744Z,0.00
2022-10-10T21:31:30.104Z,0.00
2022-10-10T21:33:56.912Z,0.00
2022-10-10T21:36:25.647Z,0.00
2022-10-10T21:38:53.397Z,0.00
2022-10-10T21:41:20.974Z,0.00
2022-10-10T21:43:49.955Z,0.00
2022-10-10T21:46:19.209Z,0.00
2022-10-10T21:48:46.278Z,0.00
2022-10-10T21:51:15.611Z,0.00
2022-10-10T21:53:43.472Z,0.00
2022-10-10T21:56:11.254Z,0.00
2022-10-10T21:58:40.598Z,0.00
2022-10-10T22:01:11.669Z,0.00
2022-10-10T22:03:38.823Z,0.00
2022-10-10T22:06:08.768Z,0.00
2022-10-10T22:08:35.944Z,0.00
2022-10-10T22:11:07.158Z,0.00
2022-10-10T22:13:33.999Z,0.00
2022-10-10T22:16:01.236Z,0.00
2022-10-10T22:18:28.120Z,0.00
2022-10-10T22:20:54.689Z,0.00
2022-10-10T22:23:21.628Z,0.00
2022-10-10T22:25:50.602Z,0.00
2022-10-10T22:28:18.000Z,0.00
2022-10-10T22:30:44.977Z,0.00
2022-10-10T22:33:12.045Z,0.00
2022-10-10T22:35:39.293Z,0.00
2022-10-10T22:38:06.210Z,0.00
2022-10-10T22:40:32.976Z,0.00
2022-10-10T22:42:59.557Z,0.00
2022-10-10T22:45:26.230Z,0.00
2022-10-10T22:47:52.874Z,0.00
2022-10-10T22:50:19.673Z,0.00
2022-10-10T22:52:46.498Z,0.00
2022-10-10T22:55:17.988Z,0.00
2022-10-10T22:57:45.640Z,0.00
2022-10-10T23:00:12.786Z,0.00
2022-10-10T23:02:39.315Z,0.00
2022-10-10T23:05:06.537Z,0.00
2022-10-10T23:07:33.580Z,0.00
2022-10-10T23:10:00.252Z,0.00
2022-10-10T23:12:26.886Z,0.00
2022-10-10T23:14:53.449Z,0.00
2022-10-10T23:17:20.011Z,0.00
2022-10-10T23:19:46.607Z,0.00
2022-10-10T23:22:13.193Z,0.00
2022-10-10T23:24:40.270Z,0.00
2022-10-10T23:27:07.541Z,0.00
2022-10-10T23:29:34.128Z,0.00
2022-10-10T23:32:00.674Z,0.00
2022-10-10T23:34:27.271Z,0.00
2022-10-10T23:36:53.841Z,0.00
2022-10-10T23:39:20.611Z,0.00
2022-10-10T23:41:47.222Z,0.00
2022-10-10T23:44:13.921Z,0.00
2022-10-10T23:46:40.493Z,0.00
2022-10-10T23:49:07.085Z,0.00
2022-10-10T23:51:33.669Z,0.00
2022-10-10T23:54:00.229Z,0.00
2022-10-10T23:56:26.930Z,0.00
2022-10-10T23:58:53.529Z,0.00
